Date,TemperatureHighF,TemperatureAvgF,TemperatureLowF,DewpointHighF,DewpointAvgF,DewpointLowF,HumidityHigh,HumidityAvg,HumidityLow,PressureMaxIn,PressureMinIn,WindSpeedMaxMPH,WindSpeedAvgMPH,GustSpeedMaxMPH,PrecipitationSumIn
2013-3-1,39.0,33.2,30.0,33.0,28.2,24.0,99,82,67,29.62,29.47,11,6,0,0.00
2013-3-2,36.0,31.0,27.0,27.0,24.8,22.0,83,77,68,29.61,29.54,12,7,0,0.00
2013-3-3,34.0,27.8,24.0,27.0,23.3,21.0,94,83,72,29.57,29.49,12,7,0,0.00
2013-3-4,34.0,27.9,23.0,22.0,19.8,17.0,82,72,58,29.72,29.55,15,10,0,0.00
2013-3-5,43.0,32.2,25.0,28.0,23.9,20.0,82,72,52,30.01,29.72,12,4,0,0.00
2013-3-6,35.0,32.5,30.0,32.0,28.7,25.0,96,86,75,30.09,29.97,6,2,0,0.00
2013-3-7,33.0,30.4,28.0,30.0,26.5,23.0,93,86,73,30.06,29.96,11,5,0,0.00
2013-3-8,37.0,31.1,27.0,27.0,25.1,22.0,96,80,56,30.15,29.90,13,10,0,0.00
2013-3-9,54.0,38.4,25.0,23.0,19.1,14.0,84,51,22,30.26,30.11,11,5,0,0.00
2013-3-10,52.0,38.7,26.0,30.0,25.1,21.0,82,60,33,30.30,30.18,2,0,0,0.00
2013-3-11,45.0,38.7,32.0,39.0,32.7,30.0,93,80,63,30.20,30.04,3,1,0,0.00
2013-3-12,49.0,44.2,40.0,49.0,43.7,37.0,100,98,87,30.04,29.65,8,-48,0,0.00
2013-3-13,47.0,37.8,32.0,37.0,26.9,18.0,94,67,39,29.75,29.69,9,4,0,0.00
2013-3-14,31.0,24.8,17.0,23.0,12.6,4.0,76,60,48,29.77,29.66,18,6,0,0.00
2013-3-15,35.0,25.1,14.0,28.0,13.6,3.0,94,64,27,29.78,29.56,15,3,0,0.00
2013-3-16,33.0,27.3,20.0,25.0,14.5,9.0,92,60,40,29.77,29.61,8,2,0,0.00
2013-3-17,25.0,21.1,19.0,14.0,10.7,8.0,77,64,51,29.92,29.77,6,1,0,0.00
2013-3-24,42.0,36.6,30.0,25.0,22.8,21.0,70,57,50,29.78,29.70,12,6,0,0.00
2013-3-25,40.0,32.6,25.0,29.0,24.4,21.0,86,72,58,29.73,29.46,4,1,0,0.00
2013-3-26,44.0,35.8,31.0,30.0,24.4,18.0,91,66,40,29.75,29.52,11,3,0,0.00
2013-3-27,50.0,38.6,30.0,30.0,23.6,19.0,75,56,32,29.83,29.71,14,4,0,0.00
2013-3-28,47.0,38.8,32.0,35.0,31.0,28.0,99,75,48,29.98,29.83,11,3,0,0.00
2013-3-29,54.0,41.9,35.0,35.0,31.5,28.0,84,68,41,30.02,29.95,9,3,0,0.00
2013-3-30,55.0,42.4,32.0,32.0,22.6,11.0,83,51,23,30.05,29.97,9,2,0,0.00
2013-3-31,53.0,41.3,28.0,38.0,24.5,-99.9,97,57,29,30.06,29.70,4,1,0,0.00